Time;durP1;ratioP1;P1;durP2;ratioP2;P2;SDS_P1;SDS_P2;PMS_P1;PMS_P2;Temp;Humidity;BMP_temperature;BMP_pressure;BME280_temperature;BME280_humidity;BME280_pressure;Samples;Min_cycle;Max_cycle;Signal;HPM_P1;HPM_P2
2021/08/11 00:03:27;;;;;;;3.30;3.00;;;;;;;16.49;85.94;100230.84;10457003;28;20049;-73
2021/08/11 00:08:29;;;;;;;4.07;2.55;;;;;;;16.26;87.33;100232.06;10437738;28;20045;-73
2021/08/11 00:13:31;;;;;;;3.13;2.80;;;;;;;16.22;87.07;100238.47;10455044;28;20037;-73
2021/08/11 00:18:32;;;;;;;3.30;2.58;;;;;;;16.13;89.08;100226.53;10454759;28;20443;-74
2021/08/11 00:23:34;;;;;;;3.00;2.63;;;;;;;16.17;88.23;100234.34;10437021;28;20519;-73
2021/08/11 00:28:36;;;;;;;3.50;2.70;;;;;;;16.24;87.04;100235.72;10436041;28;20048;-73
2021/08/11 00:33:37;;;;;;;2.63;2.42;;;;;;;16.53;85.58;100240.38;10436681;28;20104;-73
2021/08/11 00:38:39;;;;;;;2.47;2.28;;;;;;;16.29;87.12;100239.88;10436053;28;20048;-73
2021/08/11 00:43:46;;;;;;;2.72;2.53;;;;;;;16.30;85.83;100235.41;10437364;28;20402;-74
2021/08/11 00:48:50;;;;;;;2.55;2.30;;;;;;;16.20;83.57;100240.31;10454129;28;20481;-73
2021/08/11 00:53:54;;;;;;;2.45;2.17;;;;;;;16.40;80.53;100236.66;10436155;28;20033;-73
2021/08/11 00:58:58;;;;;;;2.30;2.10;;;;;;;16.43;80.24;100241.81;10436404;28;20110;-73
2021/08/11 01:04:02;;;;;;;2.47;2.20;;;;;;;16.34;81.00;100248.44;10437544;28;20099;-73
2021/08/11 01:09:04;;;;;;;3.53;2.80;;;;;;;16.25;82.00;100245.41;10437696;28;20045;-73
2021/08/11 01:14:17;;;;;;;2.50;2.22;;;;;;;16.36;80.32;100240.41;10438600;28;20075;-74
2021/08/11 01:19:21;;;;;;;2.85;2.47;;;;;;;16.31;80.25;100253.91;10429835;28;20551;-74
2021/08/11 01:24:52;;;;;;;2.78;2.58;;;;;;;16.19;80.57;100254.53;10452258;28;20073;-73
2021/08/11 01:30:08;;;;;;;4.32;2.50;;;;;;;16.04;81.98;100253.53;10453705;28;20045;-73
2021/08/11 01:35:13;;;;;;;3.22;2.33;;;;;;;16.03;81.75;100254.47;10436380;28;20116;-73
2021/08/11 01:40:21;;;;;;;3.10;2.60;;;;;;;16.09;80.75;100255.94;10435649;28;20052;-73
2021/08/11 01:45:55;;;;;;;3.05;2.13;;;;;;;15.94;81.25;100251.41;10453365;28;20120;-73
2021/08/11 01:50:59;;;;;;;2.72;2.20;;;;;;;16.02;80.31;100258.03;10438071;28;20047;-73
2021/08/11 01:56:07;;;;;;;3.73;2.73;;;;;;;15.99;80.50;100266.16;10436014;28;20044;-73
2021/08/11 02:01:17;;;;;;;2.67;2.45;;;;;;;16.08;79.05;100264.84;10436261;28;20631;-73
2021/08/11 02:06:23;;;;;;;2.80;2.37;;;;;;;16.10;78.32;100270.91;10434312;28;20060;-73
2021/08/11 02:11:38;;;;;;;2.53;2.10;;;;;;;15.89;79.06;100270.19;10432630;28;20824;-74
2021/08/11 02:16:41;;;;;;;2.85;2.03;;;;;;;15.90;77.82;100274.59;10432898;28;20549;-73
2021/08/11 02:21:44;;;;;;;2.58;2.38;;;;;;;15.87;77.14;100280.03;10433718;28;20079;-73
2021/08/11 02:26:52;;;;;;;2.58;2.35;;;;;;;15.78;77.61;100277.84;10450849;28;20064;-73
2021/08/11 02:32:07;;;;;;;2.00;1.88;;;;;;;15.85;76.34;100276.59;10432832;28;20045;-73
2021/08/11 02:37:17;;;;;;;2.38;1.95;;;;;;;15.91;75.93;100276.28;10432682;28;20109;-73
2021/08/11 02:42:28;;;;;;;2.45;2.10;;;;;;;15.70;76.97;100278.19;10432697;28;20041;-73
2021/08/11 02:47:35;;;;;;;5.28;1.90;;;;;;;15.77;76.57;100278.78;10433144;28;20041;-73
2021/08/11 02:52:37;;;;;;;4.78;2.10;;;;;;;15.78;76.56;100277.84;10431794;28;20099;-73
2021/08/11 02:57:42;;;;;;;3.85;2.25;;;;;;;15.53;78.21;100278.13;10433194;28;20121;-73
2021/08/11 03:02:44;;;;;;;2.60;2.33;;;;;;;15.24;80.04;100287.47;10432315;28;20450;-73
2021/08/11 03:07:48;;;;;;;3.05;2.10;;;;;;;15.11;81.07;100282.75;10431980;28;20394;-73
2021/08/11 03:12:55;;;;;;;2.58;2.38;;;;;;;14.95;82.43;100288.81;10431577;28;20075;-73
2021/08/11 03:17:58;;;;;;;3.08;2.20;;;;;;;14.99;81.98;100288.59;10432376;28;20095;-73
2021/08/11 03:23:00;;;;;;;2.65;2.45;;;;;;;14.87;82.55;100294.44;10431732;28;20041;-73
2021/08/11 03:28:02;;;;;;;2.53;2.33;;;;;;;14.75;82.86;100297.66;10519824;22;20070;-74
2021/08/11 03:33:06;;;;;;;3.58;2.60;;;;;;;14.76;83.42;100296.75;10536409;28;20048;-74
2021/08/11 03:38:08;;;;;;;4.40;2.90;;;;;;;14.64;83.78;100301.63;10541512;28;20036;-74
2021/08/11 03:43:10;;;;;;;2.50;2.30;;;;;;;14.64;84.33;100303.41;10564167;28;20040;-75
2021/08/11 03:48:11;;;;;;;4.03;2.80;;;;;;;14.56;84.75;100301.09;10583132;28;20123;-75
2021/08/11 03:53:16;;;;;;;3.05;2.75;;;;;;;14.52;85.16;100303.94;10564269;28;20052;-73
2021/08/11 03:58:18;;;;;;;2.55;2.25;;;;;;;14.52;85.17;100306.59;10581750;28;20477;-73
2021/08/11 04:03:21;;;;;;;2.80;2.60;;;;;;;14.52;85.55;100301.31;10564523;28;20047;-73
2021/08/11 04:08:22;;;;;;;3.90;2.65;;;;;;;14.56;86.44;100311.69;10582919;28;20047;-74
2021/08/11 04:13:24;;;;;;;2.75;2.55;;;;;;;14.62;86.06;100310.59;10582981;28;20406;-73
2021/08/11 04:18:25;;;;;;;3.15;2.53;;;;;;;14.74;85.58;100314.44;10582894;28;20051;-73
2021/08/11 04:23:27;;;;;;;4.78;3.55;;;;;;;14.66;85.50;100308.66;10583363;28;20432;-74
2021/08/11 04:28:29;;;;;;;2.55;2.35;;;;;;;14.68;85.65;100317.38;10582720;28;20051;-73
2021/08/11 04:33:32;;;;;;;2.72;2.53;;;;;;;14.70;85.47;100331.38;10581952;28;20103;-73
2021/08/11 04:38:34;;;;;;;2.80;2.60;;;;;;;14.71;85.77;100330.47;10582023;28;20052;-74
2021/08/11 04:43:35;;;;;;;4.05;3.10;;;;;;;14.61;86.02;100343.25;10581300;28;20079;-75
2021/08/11 04:48:37;;;;;;;3.42;3.13;;;;;;;14.67;85.80;100353.56;10580389;28;20051;-74
2021/08/11 04:53:38;;;;;;;2.80;2.60;;;;;;;15.06;84.67;100345.66;10562596;28;20081;-74
2021/08/11 04:58:40;;;;;;;2.53;2.33;;;;;;;15.16;84.43;100351.38;10562425;28;20479;-74
2021/08/11 05:03:42;;;;;;;3.20;2.45;;;;;;;15.44;82.58;100353.59;10580514;28;20407;-74
2021/08/11 05:08:43;;;;;;;3.60;2.70;;;;;;;15.38;83.40;100365.34;10581089;28;20043;-74
2021/08/11 05:13:45;;;;;;;3.35;3.05;;;;;;;15.49;83.20;100351.59;10580526;28;20073;-74
2021/08/11 05:18:46;;;;;;;5.78;2.13;;;;;;;15.49;83.66;100353.38;10580719;28;20109;-74
2021/08/11 05:23:48;;;;;;;4.35;2.80;;;;;;;15.75;81.96;100353.03;10562325;28;20035;-74
2021/08/11 05:28:50;;;;;;;2.35;2.17;;;;;;;15.72;82.40;100361.16;10578874;28;20055;-74
2021/08/11 05:33:52;;;;;;;3.05;2.50;;;;;;;15.80;79.89;100374.03;10579059;28;20043;-74
2021/08/11 05:38:53;;;;;;;2.63;2.42;;;;;;;16.13;78.24;100380.34;10579583;28;20051;-74
2021/08/11 05:43:55;;;;;;;2.58;2.38;;;;;;;16.49;78.25;100381.25;10578834;28;20065;-74
2021/08/11 05:48:56;;;;;;;1.70;1.60;;;;;;;16.97;75.56;100385.84;10578683;28;20047;-74
2021/08/11 05:54:03;;;;;;;2.47;2.23;;;;;;;16.63;77.32;100384.03;10578231;28;20155;-74
2021/08/11 05:59:05;;;;;;;2.38;1.90;;;;;;;16.76;77.05;100389.63;10577815;28;20044;-74
2021/08/11 06:04:07;;;;;;;2.40;2.20;;;;;;;16.85;77.62;100397.09;10560298;28;20104;-75
2021/08/11 06:09:08;;;;;;;2.35;1.60;;;;;;;17.31;74.60;100392.00;10577770;28;20463;-74
2021/08/11 06:14:10;;;;;;;3.10;1.88;;;;;;;18.26;72.15;100389.41;10559299;28;20039;-73
2021/08/11 06:19:12;;;;;;;2.58;1.40;;;;;;;18.79;69.57;100388.91;10542603;28;20066;-73
2021/08/11 06:24:13;;;;;;;2.53;1.77;;;;;;;19.10;68.27;100389.72;10558709;28;20040;-73
2021/08/11 06:29:15;;;;;;;1.88;1.63;;;;;;;19.31;67.48;100388.41;10577503;28;20386;-72
2021/08/11 06:34:17;;;;;;;2.63;1.63;;;;;;;19.33;67.70;100385.63;10577253;28;20047;-74
2021/08/11 06:39:20;;;;;;;2.22;1.70;;;;;;;19.52;65.92;100388.88;10577197;28;20047;-73
2021/08/11 06:44:21;;;;;;;2.83;2.00;;;;;;;19.59;65.05;100398.19;10576833;28;20497;-74
2021/08/11 06:49:24;;;;;;;2.63;2.00;;;;;;;19.53;64.82;100401.25;10559307;28;20157;-73
2021/08/11 06:54:25;;;;;;;2.03;1.83;;;;;;;19.59;64.78;100400.00;10576728;28;20496;-73
2021/08/11 06:59:27;;;;;;;2.45;2.05;;;;;;;19.80;64.29;100411.13;10577423;28;20061;-73
2021/08/11 07:04:29;;;;;;;2.20;1.95;;;;;;;19.53;64.27;100403.06;10558890;28;20032;-72
2021/08/11 07:09:31;;;;;;;2.45;2.17;;;;;;;19.30;65.76;100407.13;10582723;28;20104;-73
2021/08/11 07:14:32;;;;;;;2.33;1.70;;;;;;;19.90;65.09;100405.09;10583894;28;20043;-73
2021/08/11 07:19:34;;;;;;;1.85;1.75;;;;;;;20.23;64.24;100408.34;10583722;28;20055;-73
2021/08/11 07:24:36;;;;;;;4.40;2.38;;;;;;;20.53;63.92;100409.00;10583492;28;20111;-73
2021/08/11 07:29:38;;;;;;;2.60;2.15;;;;;;;20.69;62.75;100416.00;10565469;28;20047;-73
2021/08/11 07:34:39;;;;;;;2.10;1.90;;;;;;;20.23;63.63;100409.22;10583087;28;20408;-73
2021/08/11 07:39:41;;;;;;;2.33;1.80;;;;;;;20.73;61.39;100412.16;10581731;28;20044;-73
2021/08/11 07:44:42;;;;;;;2.38;2.00;;;;;;;20.25;63.10;100406.44;10581891;28;20044;-72
2021/08/11 07:49:44;;;;;;;2.28;1.90;;;;;;;20.34;62.68;100417.34;10582418;28;20055;-73
2021/08/11 07:54:46;;;;;;;2.70;1.67;;;;;;;20.52;61.68;100412.63;10581867;28;20040;-73
2021/08/11 07:59:47;;;;;;;2.10;1.90;;;;;;;20.42;62.10;100416.84;10582275;28;20108;-73
2021/08/11 08:04:49;;;;;;;6.95;1.98;;;;;;;20.09;64.38;100417.25;10563846;28;20519;-74
2021/08/11 08:09:50;;;;;;;3.35;2.30;;;;;;;19.76;63.78;100421.16;10583027;28;20084;-73
2021/08/11 08:14:52;;;;;;;3.08;2.00;;;;;;;20.09;62.32;100425.25;10563315;28;20047;-73
2021/08/11 08:19:53;;;;;;;2.42;1.90;;;;;;;20.06;62.53;100431.66;10581148;28;20396;-73
2021/08/11 08:24:55;;;;;;;2.75;2.20;;;;;;;20.07;64.10;100432.50;10580916;28;20079;-74
2021/08/11 08:29:57;;;;;;;2.25;2.15;;;;;;;20.62;60.74;100427.06;10563111;28;20050;-73
2021/08/11 08:34:59;;;;;;;2.90;2.20;;;;;;;20.72;61.87;100431.78;10563832;28;20175;-73
2021/08/11 08:40:10;;;;;;;3.78;2.30;;;;;;;20.27;62.29;100424.03;10581342;28;20039;-73
2021/08/11 08:45:13;;;;;;;2.42;2.22;;;;;;;20.47;62.62;100428.06;10580778;28;20047;-74
2021/08/11 08:50:19;;;;;;;2.70;2.10;;;;;;;20.53;62.69;100424.16;10580206;28;20418;-73
2021/08/11 08:55:21;;;;;;;2.83;2.30;;;;;;;20.48;62.62;100419.13;10561854;28;20043;-73
2021/08/11 09:00:23;;;;;;;2.97;2.63;;;;;;;20.35;62.54;100437.75;10580549;28;20112;-72
2021/08/11 09:05:26;;;;;;;3.40;2.15;;;;;;;20.12;63.92;100439.25;10579714;28;20433;-71
2021/08/11 09:10:30;;;;;;;2.00;1.85;;;;;;;20.85;61.59;100430.00;10579756;28;20100;-72
2021/08/11 09:15:41;;;;;;;3.22;1.80;;;;;;;21.67;58.19;100431.41;10580392;28;20469;-72
2021/08/11 09:21:09;;;;;;;2.75;2.30;;;;;;;22.02;56.79;100436.91;10580357;28;20454;-73
2021/08/11 09:26:20;;;;;;;3.28;1.60;;;;;;;21.95;55.98;100432.09;10554845;28;20074;-73
2021/08/11 09:31:30;;;;;;;2.65;2.05;;;;;;;21.77;56.39;100439.63;10325368;28;20137;-73
2021/08/11 09:36:51;;;;;;;2.50;2.10;;;;;;;21.48;56.20;100439.06;10310890;28;20061;-73
2021/08/11 09:42:01;;;;;;;2.65;2.00;;;;;;;21.20;58.48;100448.09;10328201;28;20049;-72
2021/08/11 09:47:17;;;;;;;2.10;1.77;;;;;;;21.97;55.69;100444.41;10293923;28;20058;-71
2021/08/11 09:52:19;;;;;;;2.95;2.35;;;;;;;21.82;56.31;100449.03;10310125;28;20054;-72
2021/08/11 09:57:28;;;;;;;2.20;1.90;;;;;;;22.33;53.51;100437.34;10327276;28;20069;-71
2021/08/11 10:02:30;;;;;;;3.05;1.77;;;;;;;21.94;55.01;100441.94;10326651;28;20043;-72
2021/08/11 10:07:32;;;;;;;3.00;2.58;;;;;;;22.10;55.49;100439.03;10327165;28;20404;-71
2021/08/11 10:12:35;;;;;;;2.10;1.90;;;;;;;22.60;54.62;100437.94;10310395;28;20057;-72
2021/08/11 10:17:37;;;;;;;2.00;1.90;;;;;;;23.30;50.94;100438.91;10326710;28;20061;-71
2021/08/11 10:22:43;;;;;;;2.60;2.40;;;;;;;22.96;50.47;100441.50;10308757;28;20092;-71
2021/08/11 10:27:45;;;;;;;2.28;1.92;;;;;;;22.76;52.22;100442.16;10320581;28;20235;-71
2021/08/11 10:32:47;;;;;;;2.50;2.30;;;;;;;22.77;52.34;100449.22;10389940;28;20396;-70
2021/08/11 10:37:49;;;;;;;2.58;2.22;;;;;;;22.49;53.00;100451.31;10408570;28;20091;-71
2021/08/11 10:42:57;;;;;;;3.65;2.67;;;;;;;23.01;54.63;100451.88;10413582;28;20121;-71
2021/08/11 10:47:59;;;;;;;2.05;1.88;;;;;;;23.69;51.47;100450.16;10416252;28;20049;-70
2021/08/11 10:53:08;;;;;;;2.90;2.70;;;;;;;24.53;47.38;100454.06;10398058;28;20068;-72
2021/08/11 10:58:41;;;;;;;2.17;2.03;;;;;;;24.38;49.42;100457.00;10417198;28;20076;-70
2021/08/11 11:03:50;;;;;;;2.53;2.42;;;;;;;24.27;49.60;100459.72;10398333;28;20478;-71
2021/08/11 11:09:17;;;;;;;2.67;2.35;;;;;;;23.08;50.07;100451.28;10415491;28;20494;-70
2021/08/11 11:14:57;;;;;;;2.30;2.20;;;;;;;22.70;50.01;100443.47;10414711;28;20087;-71
2021/08/11 11:20:03;;;;;;;3.50;2.40;;;;;;;23.35;49.93;100442.06;10415198;28;20101;-70
2021/08/11 11:25:19;;;;;;;2.33;2.13;;;;;;;23.82;50.24;100438.31;10397582;28;20037;-70
2021/08/11 11:30:26;;;;;;;5.05;2.38;;;;;;;24.09;48.42;100450.47;10414924;28;20116;-69
2021/08/11 11:35:28;;;;;;;2.15;2.05;;;;;;;24.00;46.64;100446.72;10395581;28;20148;-69
2021/08/11 11:40:31;;;;;;;2.35;2.15;;;;;;;23.60;47.70;100449.88;10413526;28;20099;-69
2021/08/11 11:45:48;;;;;;;2.45;2.25;;;;;;;23.10;48.67;100441.28;10413534;28;20041;-70
2021/08/11 11:51:01;;;;;;;2.50;2.30;;;;;;;22.79;51.81;100439.22;10396792;28;20041;-70
2021/08/11 11:56:10;;;;;;;2.40;2.20;;;;;;;23.28;50.80;100440.81;10394938;28;20124;-70
2021/08/11 12:01:12;;;;;;;3.72;2.35;;;;;;;23.41;51.01;100436.19;10412242;28;20516;-70
2021/08/11 12:06:14;;;;;;;2.75;2.55;;;;;;;23.85;48.48;100437.19;10412793;28;20049;-69
2021/08/11 12:11:19;;;;;;;2.50;2.30;;;;;;;24.01;49.79;100445.72;10411920;28;20398;-70
2021/08/11 12:16:22;;;;;;;2.53;2.33;;;;;;;24.61;47.94;100440.81;10413275;28;20125;-70
2021/08/11 12:21:24;;;;;;;2.60;2.40;;;;;;;24.68;46.17;100433.94;10422870;28;20060;-70
2021/08/11 12:26:31;;;;;;;2.30;2.17;;;;;;;24.53;46.92;100433.41;10420906;28;20049;-69
2021/08/11 12:31:34;;;;;;;3.10;2.80;;;;;;;24.16;48.20;100443.59;10420689;28;20049;-69
2021/08/11 12:36:40;;;;;;;3.22;2.92;;;;;;;24.21;48.73;100433.34;10417742;28;20379;-70
2021/08/11 12:41:58;;;;;;;3.00;2.80;;;;;;;24.26;46.98;100435.66;10420018;28;20091;-71
2021/08/11 12:47:02;;;;;;;2.78;2.53;;;;;;;24.72;46.48;100434.53;10392689;28;20179;-70
2021/08/11 12:52:06;;;;;;;2.92;2.70;;;;;;;24.51;46.46;100427.28;10409812;28;20042;-70
2021/08/11 12:57:21;;;;;;;;;;;;;;;25.21;46.59;100433.06;10378124;28;20358;-71
2021/08/11 13:02:28;;;;;;;2.67;2.47;;;;;;;25.12;46.15;100434.69;10391981;28;20047;-70
2021/08/11 13:07:31;;;;;;;2.88;2.60;;;;;;;24.74;44.84;100430.72;10409644;28;20406;-70
2021/08/11 13:12:33;;;;;;;2.78;2.58;;;;;;;24.27;46.52;100432.00;10417074;28;20033;-70
2021/08/11 13:17:48;;;;;;;2.63;2.42;;;;;;;24.00;46.98;100425.22;10417782;28;20143;-70
2021/08/11 13:22:55;;;;;;;4.35;2.42;;;;;;;24.27;47.55;100430.16;10398962;28;20049;-71
2021/08/11 13:27:59;;;;;;;2.60;2.45;;;;;;;24.85;44.88;100413.69;10395774;28;20050;-70
2021/08/11 13:33:02;;;;;;;2.63;2.28;;;;;;;24.87;45.35;100425.16;10395324;28;20121;-69
2021/08/11 13:38:04;;;;;;;2.17;1.98;;;;;;;24.27;46.26;100421.25;10410066;28;20052;-69
2021/08/11 13:43:07;;;;;;;2.85;2.65;;;;;;;23.51;46.91;100415.75;10409369;28;20085;-70
2021/08/11 13:48:08;;;;;;;3.30;2.75;;;;;;;23.34;47.65;100417.06;10409329;28;20069;-70
2021/08/11 13:53:10;;;;;;;3.78;2.28;;;;;;;23.38;47.60;100420.38;10408274;28;20080;-70
2021/08/11 13:58:12;;;;;;;2.47;2.28;;;;;;;23.02;48.64;100429.44;10408548;28;20042;-70
2021/08/11 14:03:14;;;;;;;2.58;2.38;;;;;;;23.13;49.15;100422.28;10390765;28;20037;-69
2021/08/11 14:08:16;;;;;;;2.75;2.15;;;;;;;23.33;48.10;100419.84;10390605;28;20037;-70
2021/08/11 14:13:17;;;;;;;2.10;1.90;;;;;;;23.29;48.42;100415.75;10408409;28;20055;-71
2021/08/11 14:18:19;;;;;;;3.88;2.08;;;;;;;23.60;47.24;100409.63;10407815;28;20045;-70
2021/08/11 14:23:21;;;;;;;1.95;1.85;;;;;;;23.40;47.32;100416.56;10389639;28;20064;-70
2021/08/11 14:28:22;;;;;;;2.80;2.28;;;;;;;23.97;45.35;100417.41;10407683;28;20522;-70
2021/08/11 14:33:24;;;;;;;3.45;2.30;;;;;;;23.94;45.72;100416.81;10407529;28;20602;-70
2021/08/11 14:38:26;;;;;;;3.97;1.67;;;;;;;23.44;47.37;100411.81;10407488;28;20153;-70
2021/08/11 14:43:27;;;;;;;2.45;1.92;;;;;;;23.41;48.94;100402.19;10407982;28;20053;-71
2021/08/11 14:48:29;;;;;;;1.98;1.70;;;;;;;23.12;47.59;100399.13;10408079;28;20046;-71
2021/08/11 14:53:30;;;;;;;2.10;1.70;;;;;;;23.35;47.48;100404.50;10406256;28;20192;-69
2021/08/11 14:58:32;;;;;;;1.95;1.80;;;;;;;23.26;46.27;100402.56;10406777;28;20050;-70
2021/08/11 15:03:34;;;;;;;2.22;1.80;;;;;;;23.26;46.58;100394.50;10407129;28;20107;-71
2021/08/11 15:08:35;;;;;;;2.83;1.95;;;;;;;23.47;45.27;100382.09;10389101;28;20057;-71
2021/08/11 15:13:37;;;;;;;3.58;1.90;;;;;;;23.56;44.96;100388.53;10406270;28;20132;-71
2021/08/11 15:18:39;;;;;;;1.80;1.70;;;;;;;23.40;46.45;100392.44;10406436;28;20046;-71
2021/08/11 15:23:40;;;;;;;4.53;2.10;;;;;;;23.76;45.21;100389.63;10406450;28;20037;-69
2021/08/11 15:28:42;;;;;;;3.58;1.70;;;;;;;23.95;44.35;100400.59;10437707;23;20075;-72
2021/08/11 15:33:45;;;;;;;2.03;1.70;;;;;;;24.08;43.65;100386.97;10460950;28;20123;-72
2021/08/11 15:38:46;;;;;;;1.90;1.80;;;;;;;23.84;44.55;100398.78;10461840;28;20040;-72
2021/08/11 15:43:48;;;;;;;1.85;1.30;;;;;;;23.91;41.58;100399.13;10460503;28;20117;-71
2021/08/11 15:48:49;;;;;;;2.25;1.63;;;;;;;23.91;41.69;100404.50;10460591;28;20045;-72
2021/08/11 15:53:51;;;;;;;3.33;1.50;;;;;;;24.23;40.82;100390.25;10459409;28;20079;-73
2021/08/11 15:58:53;;;;;;;1.60;1.40;;;;;;;24.97;40.53;100398.31;10460203;28;20364;-73
2021/08/11 16:03:55;;;;;;;1.60;1.50;;;;;;;24.72;40.03;100396.91;10458836;28;20037;-72
2021/08/11 16:08:57;;;;;;;2.63;2.40;;;;;;;24.13;41.75;100408.97;10458585;28;20072;-72
2021/08/11 16:13:58;;;;;;;2.00;1.80;;;;;;;23.84;41.76;100406.81;10458021;28;20398;-72
2021/08/11 16:19:00;;;;;;;2.38;2.17;;;;;;;23.35;42.88;100405.38;10439727;28;20052;-72
2021/08/11 16:24:02;;;;;;;2.22;1.83;;;;;;;22.86;44.52;100409.16;10438837;28;20103;-72
2021/08/11 16:29:03;;;;;;;2.03;1.85;;;;;;;22.89;43.75;100400.94;10456808;28;20075;-73
2021/08/11 16:34:05;;;;;;;2.60;2.40;;;;;;;22.73;44.53;100403.03;10457593;28;20356;-70
2021/08/11 16:39:06;;;;;;;2.05;1.83;;;;;;;22.57;44.90;100405.16;10457160;28;20123;-74
2021/08/11 16:44:08;;;;;;;2.40;2.20;;;;;;;22.47;45.13;100399.66;10457538;28;20067;-73
2021/08/11 16:49:10;;;;;;;3.35;2.10;;;;;;;22.38;45.26;100403.03;10429683;28;20502;-74
2021/08/11 16:54:12;;;;;;;1.88;1.77;;;;;;;22.43;44.52;100406.22;10456575;28;20036;-73
2021/08/11 16:59:13;;;;;;;2.25;2.13;;;;;;;22.36;45.13;100408.53;10457062;28;20453;-73
2021/08/11 17:04:15;;;;;;;2.22;2.00;;;;;;;22.14;46.64;100398.56;10457095;28;20069;-72
2021/08/11 17:09:16;;;;;;;2.20;2.00;;;;;;;22.05;46.16;100404.56;10458076;28;20076;-73
2021/08/11 17:14:18;;;;;;;5.25;4.85;;;;;;;22.12;46.10;100399.63;10438445;28;20048;-72
2021/08/11 17:19:23;;;;;;;2.28;1.88;;;;;;;22.03;46.38;100403.81;10438825;28;20048;-73
2021/08/11 17:24:24;;;;;;;3.78;3.17;;;;;;;21.76;47.87;100409.34;10456857;28;20380;-72
2021/08/11 17:29:26;;;;;;;3.13;2.35;;;;;;;21.73;48.34;100408.72;10457143;28;20041;-72
2021/08/11 17:34:28;;;;;;;2.50;1.98;;;;;;;21.56;48.26;100408.13;10455435;28;20059;-72
2021/08/11 17:39:29;;;;;;;2.03;1.92;;;;;;;21.52;48.71;100405.78;10455391;28;20049;-72
2021/08/11 17:44:31;;;;;;;2.70;2.30;;;;;;;21.58;48.86;100421.38;10455586;28;20057;-73
2021/08/11 17:49:32;;;;;;;4.68;4.15;;;;;;;21.42;48.84;100418.94;10454259;28;20117;-73
2021/08/11 17:54:34;;;;;;;6.63;5.63;;;;;;;21.13;50.62;100413.78;10436009;28;20045;-72
2021/08/11 17:59:36;;;;;;;5.45;4.97;;;;;;;21.04;51.48;100414.44;10435882;28;20094;-72
2021/08/11 18:04:37;;;;;;;4.35;3.97;;;;;;;20.95;51.51;100422.22;10435542;28;20049;-72
2021/08/11 18:09:39;;;;;;;4.15;2.65;;;;;;;20.95;52.76;100432.91;10454688;28;20048;-72
2021/08/11 18:14:44;;;;;;;6.03;2.70;;;;;;;20.70;54.04;100431.06;10454906;28;20235;-74
2021/08/11 18:19:46;;;;;;;2.15;1.95;;;;;;;20.40;55.27;100432.09;10435960;28;20094;-72
2021/08/11 18:24:58;;;;;;;2.28;2.08;;;;;;;20.29;56.41;100437.31;10452423;28;20041;-71
2021/08/11 18:30:00;;;;;;;2.30;2.10;;;;;;;20.17;57.55;100437.13;10452567;28;20044;-71
2021/08/11 18:35:02;;;;;;;2.15;1.92;;;;;;;20.24;56.94;100431.41;10452350;28;20098;-72
2021/08/11 18:40:05;;;;;;;3.65;2.15;;;;;;;20.25;56.31;100446.47;10451964;28;20114;-72
2021/08/11 18:45:07;;;;;;;2.33;2.13;;;;;;;20.03;57.88;100457.69;10452128;28;20044;-72
2021/08/11 18:50:11;;;;;;;3.03;2.45;;;;;;;19.72;59.03;100456.97;10452457;28;20513;-72
2021/08/11 18:55:12;;;;;;;3.88;2.90;;;;;;;19.41;60.45;100476.66;10435113;28;20045;-73
2021/08/11 19:00:14;;;;;;;3.13;2.72;;;;;;;19.33;59.99;100479.78;10452783;28;20049;-72
2021/08/11 19:05:15;;;;;;;3.38;3.08;;;;;;;19.19;61.38;100486.91;10460230;28;20126;-72
2021/08/11 19:10:17;;;;;;;3.67;2.60;;;;;;;19.27;61.13;100484.63;10461207;28;20045;-73
2021/08/11 19:15:19;;;;;;;3.30;3.00;;;;;;;19.02;61.45;100491.44;10442286;28;20113;-72
2021/08/11 19:20:20;;;;;;;3.60;3.30;;;;;;;18.95;61.51;100491.88;10441855;28;20152;-73
2021/08/11 19:25:22;;;;;;;2.78;2.58;;;;;;;18.92;61.50;100494.75;10441765;28;20047;-72
2021/08/11 19:30:25;;;;;;;3.30;3.10;;;;;;;18.82;61.49;100505.09;10440969;28;20053;-72
2021/08/11 19:35:27;;;;;;;3.95;3.40;;;;;;;18.67;62.55;100502.31;10459852;28;20041;-71
2021/08/11 19:40:29;;;;;;;3.50;2.78;;;;;;;18.42;63.62;100510.00;10424490;28;20395;-71
2021/08/11 19:45:31;;;;;;;3.75;3.13;;;;;;;18.54;62.81;100505.78;10458887;28;20076;-72
2021/08/11 19:50:33;;;;;;;3.78;3.47;;;;;;;18.38;62.97;100511.13;10440937;28;20110;-73
2021/08/11 19:55:35;;;;;;;4.10;3.78;;;;;;;18.15;64.21;100513.28;10441793;28;20037;-73
2021/08/11 20:00:37;;;;;;;4.28;3.97;;;;;;;18.11;64.52;100519.72;10442349;28;20048;-72
2021/08/11 20:05:40;;;;;;;4.63;4.32;;;;;;;18.09;64.63;100518.91;10441035;28;20041;-72
2021/08/11 20:10:42;;;;;;;7.47;4.05;;;;;;;18.04;64.75;100530.75;10441285;28;20045;-71
2021/08/11 20:15:43;;;;;;;4.63;4.13;;;;;;;17.92;65.00;100521.63;10457957;28;20094;-73
2021/08/11 20:20:45;;;;;;;4.72;4.43;;;;;;;17.71;66.33;100533.41;10440063;28;20552;-72
2021/08/11 20:25:47;;;;;;;4.78;4.15;;;;;;;17.62;66.48;100548.91;10440959;28;20048;-71
2021/08/11 20:30:48;;;;;;;3.90;3.60;;;;;;;17.70;65.79;100551.16;10440527;28;20079;-71
2021/08/11 20:35:50;;;;;;;4.75;4.38;;;;;;;17.42;67.70;100549.09;10423347;28;20143;-71
2021/08/11 20:40:52;;;;;;;5.55;5.15;;;;;;;17.25;68.41;100546.44;10457138;28;20056;-73
2021/08/11 20:45:53;;;;;;;6.03;5.53;;;;;;;17.12;67.87;100544.41;10457977;28;20041;-72
2021/08/11 20:50:55;;;;;;;5.10;4.70;;;;;;;17.04;68.89;100549.25;10439598;28;20048;-72
2021/08/11 20:55:57;;;;;;;6.60;4.40;;;;;;;16.95;69.16;100547.03;10457207;28;20045;-72
2021/08/11 21:00:59;;;;;;;4.45;4.15;;;;;;;16.89;69.47;100561.50;10457668;28;20064;-72
2021/08/11 21:06:01;;;;;;;8.35;4.03;;;;;;;16.89;69.13;100566.81;10456824;28;20133;-73
2021/08/11 21:11:03;;;;;;;4.45;4.15;;;;;;;16.90;69.42;100570.31;10438634;28;20155;-72
2021/08/11 21:16:06;;;;;;;5.00;4.60;;;;;;;16.90;69.88;100570.31;10454943;28;20041;-73
2021/08/11 21:21:08;;;;;;;4.88;4.47;;;;;;;16.84;70.35;100579.44;10454399;28;20072;-71
2021/08/11 21:26:12;;;;;;;6.70;4.65;;;;;;;16.75;70.60;100579.91;10453978;28;20072;-71
2021/08/11 21:31:13;;;;;;;5.28;4.78;;;;;;;16.71;70.94;100580.94;10399786;22;20156;-73
2021/08/11 21:36:15;;;;;;;4.72;4.43;;;;;;;16.55;71.23;100582.63;10352032;28;20046;-73
2021/08/11 21:41:17;;;;;;;4.95;3.90;;;;;;;16.63;70.98;100576.00;10372035;28;20459;-73
2021/08/11 21:46:19;;;;;;;4.95;4.55;;;;;;;16.77;70.02;100574.50;10353261;28;20042;-72
2021/08/11 21:51:21;;;;;;;5.13;4.05;;;;;;;16.66;70.63;100585.63;10369788;28;20050;-73
2021/08/11 21:56:22;;;;;;;5.50;5.03;;;;;;;16.32;72.82;100581.91;10369229;28;20046;-72
2021/08/11 22:01:24;;;;;;;4.78;3.85;;;;;;;16.20;72.97;100581.63;10352548;28;20066;-73
2021/08/11 22:06:26;;;;;;;4.57;4.18;;;;;;;16.21;72.52;100593.97;10369213;28;20100;-72
2021/08/11 22:11:27;;;;;;;4.68;4.28;;;;;;;16.61;71.25;100592.97;10368877;28;20046;-72
2021/08/11 22:16:29;;;;;;;4.60;4.20;;;;;;;16.40;71.52;100589.53;10350659;28;20048;-73
2021/08/11 22:21:30;;;;;;;5.05;4.65;;;;;;;16.04;73.66;100598.25;10369471;28;20046;-72
2021/08/11 22:26:32;;;;;;;4.68;4.38;;;;;;;15.89;73.91;100599.81;10371664;28;20056;-73
2021/08/11 22:31:34;;;;;;;5.15;4.75;;;;;;;16.12;73.36;100593.47;10368051;28;20092;-73
2021/08/11 22:36:35;;;;;;;5.38;4.88;;;;;;;15.89;74.17;100585.66;10370697;28;20325;-73
2021/08/11 22:41:37;;;;;;;5.95;4.72;;;;;;;15.70;75.41;100590.94;10376876;28;20046;-73
2021/08/11 22:46:39;;;;;;;4.65;4.25;;;;;;;15.66;74.79;100592.00;10361331;28;20042;-73
2021/08/11 22:51:40;;;;;;;5.10;4.70;;;;;;;15.66;75.23;100592.00;10376629;28;20177;-73
2021/08/11 22:56:42;;;;;;;5.50;3.97;;;;;;;15.90;74.35;100592.72;10376135;28;20532;-73
2021/08/11 23:01:44;;;;;;;5.03;4.50;;;;;;;15.92;73.29;100595.28;10375724;28;20049;-72
2021/08/11 23:06:50;;;;;;;4.57;4.18;;;;;;;15.47;75.34;100602.50;10377803;28;20042;-73
2021/08/11 23:11:52;;;;;;;3.97;3.67;;;;;;;15.28;76.51;100601.56;10376922;28;20102;-72
2021/08/11 23:16:56;;;;;;;4.43;4.13;;;;;;;15.37;76.34;100601.19;10376174;28;20463;-72